EDDF/FRA METAR and TAF weather

Enter ICAO airport designator
Station Type Date Time Source
EDDF METAR 2020/03/28 19:50 UTC NOAA

EDDF 281950Z 01013KT CAVOK 12/M01 Q1019 NOSIG


Station Type Date Time Source
EDDF Decoded METAR 2020/03/28 19:50 UTC NOAA

Frankfurt / M-Flughafen, Germany (EDDF) 50-03N 008-36E 113M
Mar 28, 2020 - 03:50 PM EDT / 2020.03.28 1950 UTC
Wind: from the N (010 degrees) at 15 MPH (13 KT):0
Visibility: greater than 7 mile(s):0
Temperature: 53 F (12 C)
Dew Point: 30 F (-1 C)
Relative Humidity: 40%
Pressure (altimeter): 30.09 in. Hg (1019 hPa)
ob: EDDF 281950Z 01013KT CAVOK 12/M01 Q1019 NOSIG
cycle: 20

Station Type Date Time Source
EDDF TAF 2020/03/28 18:27 UTC NOAA

TAF TAF EDDF 281700Z 2818/2924 01012KT CAVOK PROB30
TEMPO 2818/2821 01015G25KT
BECMG 2900/2902 BKN030 PROB40
TEMPO 2902/2908 BKN012
BECMG 2912/2914 01015G25KT PROB30
TEMPO 2916/2920 02020G30KT RA BKN012

Example: see airport list